Terminal Aerodrome Forecast
Issued by NWS

Home | Current Version | Previous Version | Text Only | Print | Product List | Glossary On
Versions: 1 2 3 4 5 6 7 8 9 10 11 12 13 14 15 16 17 18 19 20 21 22 23 24 25
000
FTUS46 KEKA 190523 AAA
TAFCEC
TAF AMD
KCEC 190523Z 1905/2006 16008KT P6SM BKN002 OVC015
      TEMPO 1908/1912 3SM -DZ BR BKN002 BKN009 OVC015
     FM191200 15013G23KT 4SM -DZ BR SCT005 BKN010 OVC020
     FM191700 17018G28KT 2SM -RA BR BKN005 OVC015 WS020/18030KT
     FM200200 19012G22KT 3SM -SHRA BR SCT005 OVC015=

USA.gov is the U.S. government's official web portal to all federal, state and local government web resources and services.